createdAt,value
2019-03-06T07:14:38.713Z,33.28
2019-03-06T07:24:51.292Z,37.38
2019-03-06T08:05:54.307Z,29.20
2019-03-06T08:26:05.520Z,27.32
2019-03-06T08:36:10.257Z,25.27
2019-03-06T08:46:19.694Z,20.30
2019-03-06T08:56:35.280Z,25.05
2019-03-06T09:27:18.485Z,24.98
2019-03-06T09:47:36.839Z,30.70
2019-03-06T09:57:43.317Z,29.87
2019-03-06T10:17:58.370Z,27.50
2019-03-06T10:38:16.417Z,24.90
2019-03-06T10:58:19.286Z,22.55
2019-03-06T11:18:30.115Z,26.75
2019-03-06T11:28:35.306Z,25.77
2019-03-06T11:48:44.124Z,24.70
2019-03-06T12:29:02.244Z,25.48
2019-03-06T12:49:13.290Z,21.87
2019-03-06T13:39:48.097Z,22.35
2019-03-06T13:59:56.644Z,27.90
2019-03-06T14:10:01.297Z,23.73
2019-03-06T14:30:16.389Z,15.75
2019-03-06T15:20:38.093Z,18.90
2019-03-06T15:30:43.116Z,44.42
2019-03-06T15:40:48.233Z,30.43
2019-03-06T16:00:56.748Z,44.00
2019-03-06T16:11:02.602Z,42.00
2019-03-06T16:31:11.412Z,41.10
2019-03-06T16:51:21.104Z,87.47
2019-03-06T17:01:27.258Z,83.05
2019-03-06T17:21:36.235Z,99.70
2019-03-06T17:41:44.688Z,111.10
2019-03-06T17:51:50.646Z,90.38
2019-03-06T18:01:55.286Z,90.22
2019-03-06T18:42:12.971Z,70.28
2019-03-06T18:52:20.591Z,77.05
2019-03-06T19:12:30.272Z,73.83
2019-03-06T19:32:40.250Z,74.72
2019-03-06T19:54:34.654Z,46.33
2019-03-06T20:57:45.691Z,51.37
2019-03-06T21:07:50.240Z,55.65
2019-03-06T21:27:58.675Z,45.85
2019-03-06T21:58:12.304Z,44.08
2019-03-06T22:18:22.276Z,43.73
2019-03-06T22:38:31.349Z,40.85
2019-03-06T22:58:42.305Z,41.48
2019-03-06T23:18:51.282Z,45.92
2019-03-06T23:39:00.143Z,44.83
2019-03-06T23:49:06.373Z,43.08
